Time;durP1;ratioP1;P1;durP2;ratioP2;P2;SDS_P1;SDS_P2;PMS_P1;PMS_P2;Temp;Humidity;BMP_temperature;BMP_pressure;BME280_temperature;BME280_humidity;BME280_pressure;Samples;Min_cycle;Max_cycle;Signal;HPM_P1;HPM_P2
2023/01/09 00:01:35;;;;;;;2.00;1.20;;;20.60;65.50;;;;;;4828380;28;92821;-91
2023/01/09 00:04:01;;;;;;;3.27;1.30;;;20.60;65.80;;;;;;4829630;28;92150;-93
2023/01/09 00:06:27;;;;;;;5.07;1.73;;;20.50;65.80;;;;;;4873276;28;94395;-92
2023/01/09 00:08:53;;;;;;;1.75;1.30;;;20.50;65.60;;;;;;4906698;28;93348;-93
2023/01/09 00:11:19;;;;;;;2.63;1.60;;;20.50;65.80;;;;;;4907767;28;91893;-89
2023/01/09 00:13:46;;;;;;;2.58;1.35;;;20.50;65.60;;;;;;4833285;28;92281;-94
2023/01/09 00:16:12;;;;;;;3.08;1.10;;;20.50;65.60;;;;;;4887989;28;93460;-91
2023/01/09 00:18:38;;;;;;;3.08;1.52;;;20.50;65.80;;;;;;4874019;28;92235;-89
2023/01/09 00:21:07;;;;;;;2.15;1.10;;;20.50;65.70;;;;;;4834870;28;92057;-89
2023/01/09 00:23:33;;;;;;;1.80;1.13;;;20.50;66.00;;;;;;4824920;28;92044;-90
2023/01/09 00:26:11;;;;;;;2.58;1.20;;;20.40;65.80;;;;;;4828175;29;93547;-93
2023/01/09 00:28:37;;;;;;;2.20;1.20;;;20.40;65.90;;;;;;4827661;28;93444;-88
2023/01/09 00:31:21;;;;;;;2.38;1.13;;;20.40;65.90;;;;;;4830530;28;92089;-93
2023/01/09 00:33:59;;;;;;;2.35;1.45;;;20.40;66.00;;;;;;4828074;28;92522;-91
2023/01/09 00:36:28;;;;;;;2.08;1.10;;;20.40;66.00;;;;;;4830500;28;93632;-89
2023/01/09 00:38:54;;;;;;;2.75;1.73;;;20.40;66.00;;;;;;4828292;28;92531;-89
2023/01/09 00:41:24;;;;;;;4.00;1.42;;;20.40;66.00;;;;;;4827441;29;92576;-92
2023/01/09 00:43:54;;;;;;;2.25;1.25;;;20.30;65.90;;;;;;4832142;28;91322;-91
2023/01/09 00:46:39;;;;;;;2.08;1.48;;;20.30;65.80;;;;;;4885038;28;92833;-90
2023/01/09 00:49:06;;;;;;;2.78;1.27;;;20.30;65.90;;;;;;4853153;28;92497;-91
2023/01/09 00:51:33;;;;;;;2.10;1.45;;;20.30;65.80;;;;;;4825580;28;93496;-95
2023/01/09 00:54:02;;;;;;;6.63;1.50;;;20.30;65.80;;;;;;4840428;28;92666;-91
2023/01/09 00:56:28;;;;;;;1.45;1.00;;;20.30;66.00;;;;;;4822363;29;93495;-89
2023/01/09 00:58:54;;;;;;;2.42;1.25;;;20.30;66.10;;;;;;4838904;28;92288;-89
2023/01/09 01:01:20;;;;;;;1.63;1.10;;;20.30;65.90;;;;;;4824237;28;92223;-92
2023/01/09 01:03:46;;;;;;;2.70;1.60;;;20.30;66.10;;;;;;4824942;28;92287;-91
2023/01/09 01:08:56;;;;;;;1.52;0.93;;;20.30;66.70;;;;;;4897233;28;91392;-95
2023/01/09 01:11:22;;;;;;;2.53;1.17;;;20.20;65.90;;;;;;4825104;29;92503;-92
2023/01/09 01:14:00;;;;;;;2.15;1.35;;;20.20;65.90;;;;;;4836176;28;92071;-94
2023/01/09 01:16:26;;;;;;;1.60;1.00;;;20.20;66.00;;;;;;4830424;28;93592;-88
2023/01/09 01:18:52;;;;;;;1.35;0.90;;;20.20;66.00;;;;;;4828264;28;93437;-90
2023/01/09 01:21:18;;;;;;;3.28;1.25;;;20.20;65.90;;;;;;4832236;28;92356;-89
2023/01/09 01:23:43;;;;;;;2.10;1.30;;;20.20;66.10;;;;;;4827856;28;91837;-89
2023/01/09 01:26:13;;;;;;;3.75;1.20;;;20.20;66.00;;;;;;4834938;28;92942;-89
2023/01/09 01:28:39;;;;;;;;;;;20.20;66.00;;;;;;4842434;28;92709;-88
2023/01/09 01:31:06;;;;;;;1.60;1.00;;;20.20;67.00;;;;;;4831796;28;91739;-92
2023/01/09 01:33:32;;;;;;;2.22;1.10;;;20.10;65.90;;;;;;4832149;28;91612;-92
2023/01/09 01:36:03;;;;;;;1.45;0.98;;;20.10;66.00;;;;;;4821959;29;95592;-90
2023/01/09 01:38:30;;;;;;;1.40;0.95;;;20.10;65.90;;;;;;4834076;29;93895;-92
2023/01/09 01:40:56;;;;;;;2.45;1.00;;;20.10;66.00;;;;;;4826445;28;93277;-94
2023/01/09 01:43:22;;;;;;;2.63;1.25;;;20.10;66.00;;;;;;4823999;28;92223;-93
2023/01/09 01:45:48;;;;;;;1.75;1.05;;;20.10;66.10;;;;;;4823383;28;92785;-93
2023/01/09 01:48:29;;;;;;;2.17;1.40;;;20.10;66.20;;;;;;4820149;28;92790;-88
2023/01/09 01:51:05;;;;;;;2.50;1.17;;;20.10;66.10;;;;;;4827212;28;92425;-90
2023/01/09 01:53:37;;;;;;;1.63;1.10;;;20.10;66.00;;;;;;4829204;28;91970;-91
2023/01/09 01:56:29;;;;;;;1.45;1.13;;;20.10;65.90;;;;;;4823126;29;97105;-92
2023/01/09 01:59:24;;;;;;;2.15;1.42;;;20.00;65.90;;;;;;4901945;28;91746;-92
2023/01/09 02:01:55;;;;;;;1.50;1.00;;;20.00;66.00;;;;;;4826502;28;92219;-92
2023/01/09 02:04:21;;;;;;;2.22;0.80;;;20.00;66.10;;;;;;4823409;28;92466;-93
2023/01/09 02:06:49;;;;;;;1.48;0.93;;;20.10;66.10;;;;;;4823854;28;94589;-91
2023/01/09 02:09:18;;;;;;;2.73;1.00;;;20.00;66.10;;;;;;4828428;28;94300;-91
2023/01/09 02:11:51;;;;;;;2.00;1.05;;;20.00;66.20;;;;;;4834103;28;92554;-94
2023/01/09 02:14:18;;;;;;;3.28;1.08;;;20.00;66.00;;;;;;4844443;28;92389;-90
2023/01/09 02:16:47;;;;;;;1.15;0.90;;;20.00;66.10;;;;;;4833388;28;92813;-90
2023/01/09 02:19:52;;;;;;;2.33;1.17;;;20.00;66.00;;;;;;4834188;28;92353;-89
2023/01/09 02:22:58;;;;;;;2.90;1.38;;;20.00;65.80;;;;;;4836939;28;92132;-89
2023/01/09 02:25:39;;;;;;;1.58;1.20;;;20.00;65.90;;;;;;4828876;28;91169;-90
2023/01/09 02:28:20;;;;;;;2.17;1.00;;;19.90;66.00;;;;;;4835912;28;93854;-93
2023/01/09 02:30:53;;;;;;;2.47;1.35;;;19.90;66.20;;;;;;4833163;28;92431;-93
2023/01/09 02:33:40;;;;;;;2.88;1.30;;;19.90;66.20;;;;;;4825472;28;93051;-93
2023/01/09 02:36:23;;;;;;;1.15;1.05;;;19.90;66.10;;;;;;4825896;28;95605;-89
2023/01/09 02:39:00;;;;;;;2.63;1.15;;;19.90;66.10;;;;;;4830299;28;95723;-93
2023/01/09 02:42:02;;;;;;;1.67;1.20;;;19.90;66.10;;;;;;4830424;28;93658;-92
2023/01/09 02:44:31;;;;;;;1.85;0.98;;;19.90;66.00;;;;;;4830107;28;92468;-91
2023/01/09 02:47:15;;;;;;;1.80;1.30;;;19.90;66.10;;;;;;4829916;28;92295;-90
2023/01/09 02:49:45;;;;;;;1.63;1.02;;;19.90;66.10;;;;;;4832496;28;93844;-93
2023/01/09 02:52:48;;;;;;;1.85;1.02;;;19.90;66.10;;;;;;4827018;28;93384;-90
2023/01/09 02:55:46;;;;;;;2.17;0.93;;;19.80;66.00;;;;;;4845111;28;91963;-94
2023/01/09 02:58:49;;;;;;;1.60;1.15;;;19.80;65.80;;;;;;4831631;28;92011;-90
2023/01/09 03:01:31;;;;;;;1.85;1.10;;;19.80;66.00;;;;;;4912936;28;97679;-92
2023/01/09 03:04:37;;;;;;;1.58;1.17;;;19.80;65.80;;;;;;4859456;28;93361;-93
2023/01/09 03:07:28;;;;;;;2.05;1.30;;;19.80;66.20;;;;;;4839361;28;92411;-91
2023/01/09 03:10:09;;;;;;;2.00;1.10;;;19.80;66.20;;;;;;4827864;28;92630;-90
2023/01/09 03:12:36;;;;;;;1.95;1.10;;;19.80;66.00;;;;;;4826595;28;93727;-91
2023/01/09 03:15:04;;;;;;;1.38;0.80;;;19.80;66.00;;;;;;4825888;28;93435;-94
2023/01/09 03:17:46;;;;;;;1.55;0.90;;;19.80;66.10;;;;;;4826457;29;93061;-93
2023/01/09 03:20:14;;;;;;;1.25;0.80;;;19.80;66.10;;;;;;4827041;29;92382;-92
2023/01/09 03:22:58;;;;;;;1.67;0.83;;;19.80;66.10;;;;;;4828287;28;94343;-89
2023/01/09 03:25:26;;;;;;;1.58;1.00;;;19.80;66.10;;;;;;4834365;28;95899;-95
2023/01/09 03:27:57;;;;;;;1.17;0.82;;;19.70;65.90;;;;;;4827003;28;93346;-93
2023/01/09 03:30:25;;;;;;;1.02;0.70;;;19.80;65.90;;;;;;4825486;28;91720;-92
2023/01/09 03:32:51;;;;;;;1.15;0.80;;;19.80;66.00;;;;;;4845728;28;95154;-92
2023/01/09 03:35:16;;;;;;;1.10;1.00;;;19.70;65.90;;;;;;4826201;29;91924;-92
2023/01/09 03:37:52;;;;;;;1.75;0.93;;;19.80;66.00;;;;;;4812340;28;92037;-91
2023/01/09 03:40:19;;;;;;;1.55;1.10;;;19.70;65.60;;;;;;4798106;28;91918;-91
2023/01/09 03:42:45;;;;;;;2.40;0.90;;;19.70;65.70;;;;;;4797042;29;93064;-90
2023/01/09 03:45:11;;;;;;;1.40;1.00;;;19.70;65.70;;;;;;4800117;28;92843;-90
2023/01/09 03:47:37;;;;;;;0.90;0.75;;;19.70;65.80;;;;;;4799124;29;92405;-92
2023/01/09 03:50:03;;;;;;;0.93;0.70;;;19.70;65.90;;;;;;4820400;29;92590;-91
2023/01/09 03:52:29;;;;;;;1.48;0.82;;;19.70;66.00;;;;;;4798236;29;95212;-93
2023/01/09 03:54:55;;;;;;;0.93;0.80;;;19.70;65.90;;;;;;4798440;29;92762;-90
2023/01/09 03:57:20;;;;;;;1.50;0.80;;;19.70;65.70;;;;;;4799385;29;92406;-91
2023/01/09 03:59:46;;;;;;;0.90;0.82;;;19.70;65.60;;;;;;4799003;29;93119;-90
2023/01/09 04:02:12;;;;;;;2.13;1.00;;;19.70;65.60;;;;;;4814349;29;96429;-93
2023/01/09 04:04:38;;;;;;;1.13;0.70;;;19.70;65.60;;;;;;4798253;29;94003;-92
2023/01/09 04:07:04;;;;;;;1.70;0.85;;;19.70;65.70;;;;;;4799262;29;92376;-92
2023/01/09 04:09:29;;;;;;;1.58;0.98;;;19.60;65.50;;;;;;4799855;28;91885;-89
2023/01/09 04:11:55;;;;;;;1.85;0.95;;;19.70;65.60;;;;;;4798234;29;92491;-89
2023/01/09 04:14:21;;;;;;;1.83;0.90;;;19.70;65.60;;;;;;4797541;29;93439;-93
2023/01/09 04:16:47;;;;;;;1.13;0.73;;;19.70;65.70;;;;;;4807931;28;93432;-92
2023/01/09 04:19:12;;;;;;;1.40;0.82;;;19.70;65.70;;;;;;4796437;29;92262;-91
2023/01/09 04:21:50;;;;;;;1.60;1.00;;;19.60;65.50;;;;;;4797223;29;94464;-91
2023/01/09 04:24:16;;;;;;;1.90;1.15;;;19.70;65.70;;;;;;4802580;29;92878;-90
2023/01/09 04:26:42;;;;;;;1.45;0.80;;;19.60;65.60;;;;;;4798268;29;91940;-93
2023/01/09 04:29:07;;;;;;;2.08;0.98;;;19.60;65.60;;;;;;4799310;29;92305;-91
2023/01/09 04:31:33;;;;;;;3.60;1.35;;;19.60;65.60;;;;;;4797850;29;92382;-89
2023/01/09 04:33:59;;;;;;;1.65;1.05;;;19.60;65.60;;;;;;4799977;28;92340;-92
2023/01/09 04:36:25;;;;;;;1.63;0.77;;;19.60;65.80;;;;;;4797584;29;92367;-89
2023/01/09 04:38:50;;;;;;;1.15;0.93;;;19.60;65.70;;;;;;4790069;29;92689;-93
2023/01/09 04:41:47;;;;;;;1.65;0.82;;;19.70;65.60;;;;;;4792335;29;94039;-91
2023/01/09 04:44:01;;;;;;;1.50;0.88;;;19.70;65.50;;;;;;4894778;28;98321;-89
2023/01/09 04:46:27;;;;;;;2.35;0.80;;;19.70;65.30;;;;;;4832850;28;92315;-91
2023/01/09 04:48:53;;;;;;;3.22;0.65;;;19.70;65.20;;;;;;4816783;28;92555;-88
2023/01/09 04:51:18;;;;;;;1.70;0.98;;;19.60;65.40;;;;;;4820236;28;92607;-92
2023/01/09 04:54:02;;;;;;;1.98;0.88;;;19.60;65.90;;;;;;4820999;28;92841;-92
2023/01/09 04:56:28;;;;;;;2.50;1.00;;;19.70;66.10;;;;;;4818652;29;91978;-92
2023/01/09 04:58:53;;;;;;;1.98;1.20;;;19.70;66.10;;;;;;4814655;28;91953;-93
2023/01/09 05:01:19;;;;;;;2.85;1.20;;;19.70;66.20;;;;;;4817224;28;93837;-91
2023/01/09 05:03:45;;;;;;;3.17;1.13;;;19.70;66.20;;;;;;4816023;28;92329;-90
2023/01/09 05:06:10;;;;;;;4.72;1.27;;;19.70;66.20;;;;;;4824234;28;93052;-92
2023/01/09 05:08:36;;;;;;;7.35;1.05;;;19.70;65.60;;;;;;4807203;28;91945;-90
2023/01/09 05:11:02;;;;;;;3.22;1.40;;;19.80;64.90;;;;;;4816886;29;93619;-89
2023/01/09 05:13:28;;;;;;;1.95;1.08;;;19.90;64.60;;;;;;4815631;28;95356;-89
2023/01/09 05:15:53;;;;;;;4.57;0.82;;;19.90;62.60;;;;;;4815789;28;91974;-91
2023/01/09 05:18:19;;;;;;;2.58;1.00;;;19.90;63.00;;;;;;4822642;28;92318;-92
2023/01/09 05:20:45;;;;;;;4.57;1.15;;;19.90;64.40;;;;;;4824472;28;93476;-90
2023/01/09 05:23:10;;;;;;;2.72;1.20;;;19.90;63.00;;;;;;4817173;29;92797;-89
2023/01/09 05:25:36;;;;;;;2.65;1.20;;;19.70;60.60;;;;;;4823132;28;92323;-91
2023/01/09 05:28:03;;;;;;;3.03;1.30;;;19.60;59.80;;;;;;4817162;28;91962;-92
2023/01/09 05:30:29;;;;;;;2.55;1.38;;;19.50;59.20;;;;;;4816457;28;93459;-90
2023/01/09 05:33:03;;;;;;;5.32;1.40;;;19.40;59.00;;;;;;4817541;28;95386;-91
2023/01/09 05:35:29;;;;;;;3.17;1.40;;;19.30;58.90;;;;;;4817413;29;92671;-93
2023/01/09 05:37:55;;;;;;;4.25;1.17;;;19.20;58.40;;;;;;4817577;28;92528;-91
2023/01/09 05:40:21;;;;;;;4.53;1.30;;;19.10;57.90;;;;;;4817474;28;92764;-91
2023/01/09 05:42:47;;;;;;;3.17;1.20;;;19.10;57.80;;;;;;4817279;28;93078;-91
2023/01/09 05:45:12;;;;;;;6.03;1.83;;;19.10;57.70;;;;;;4817833;28;92987;-92
2023/01/09 05:47:38;;;;;;;3.50;1.38;;;19.10;57.20;;;;;;4817700;28;91738;-92
2023/01/09 05:50:04;;;;;;;5.95;1.40;;;19.00;57.00;;;;;;4817644;29;93967;-90
2023/01/09 05:52:30;;;;;;;4.82;1.40;;;19.00;56.70;;;;;;4816452;28;92975;-92
2023/01/09 05:54:56;;;;;;;6.00;2.03;;;19.00;56.60;;;;;;4817356;28;92943;-91
2023/01/09 05:57:21;;;;;;;3.63;1.35;;;19.00;56.10;;;;;;4820303;28;92300;-93
2023/01/09 05:59:47;;;;;;;3.33;1.52;;;19.00;56.10;;;;;;4818964;28;94333;-92
2023/01/09 06:02:13;;;;;;;4.53;1.58;;;19.00;55.80;;;;;;4820440;28;93284;-93
2023/01/09 06:04:38;;;;;;;4.90;1.27;;;19.00;55.30;;;;;;4820129;28;92509;-93
2023/01/09 06:07:04;;;;;;;6.00;1.60;;;18.90;55.10;;;;;;4819573;28;92472;-92
2023/01/09 06:09:30;;;;;;;6.75;1.63;;;18.90;54.80;;;;;;4818723;28;93717;-90
2023/01/09 06:11:56;;;;;;;4.65;1.50;;;18.90;54.60;;;;;;4819307;28;92818;-91
2023/01/09 06:14:22;;;;;;;7.10;1.73;;;18.90;54.70;;;;;;4820333;29;92393;-92
2023/01/09 06:16:48;;;;;;;4.80;1.48;;;18.90;54.50;;;;;;4827681;28;92047;-86
2023/01/09 06:19:23;;;;;;;6.32;1.63;;;18.90;54.50;;;;;;4819228;28;94315;-95
2023/01/09 06:21:48;;;;;;;6.55;1.73;;;18.90;54.20;;;;;;4818984;28;95651;-90
2023/01/09 06:24:14;;;;;;;6.85;1.70;;;18.90;54.00;;;;;;4817665;28;92635;-90
2023/01/09 06:26:40;;;;;;;3.08;1.13;;;18.80;53.60;;;;;;4818258;28;92402;-93
2023/01/09 06:29:06;;;;;;;5.18;1.83;;;18.90;53.60;;;;;;4819535;29;91990;-91
2023/01/09 06:31:32;;;;;;;8.25;2.00;;;18.80;53.50;;;;;;4819427;28;92671;-93
2023/01/09 06:33:58;;;;;;;7.68;1.63;;;18.80;53.50;;;;;;4819238;28;92015;-92
2023/01/09 06:36:24;;;;;;;4.03;1.70;;;18.80;53.30;;;;;;4820473;28;91299;-91
2023/01/09 06:38:50;;;;;;;6.28;1.55;;;18.70;53.10;;;;;;4818049;28;92547;-87
2023/01/09 06:41:16;;;;;;;5.38;1.50;;;18.80;53.90;;;;;;4819300;29;92326;-91
2023/01/09 06:43:42;;;;;;;5.15;1.58;;;18.90;54.70;;;;;;4817382;28;93443;-94
2023/01/09 06:46:08;;;;;;;6.53;1.90;;;19.00;55.30;;;;;;4819215;28;92690;-88
2023/01/09 06:48:34;;;;;;;3.50;1.67;;;19.10;55.50;;;;;;4818463;28;93604;-92
2023/01/09 06:51:00;;;;;;;4.40;1.58;;;19.10;55.40;;;;;;4817847;28;93611;-90
2023/01/09 06:53:25;;;;;;;3.38;1.38;;;19.30;55.50;;;;;;4825187;29;92445;-92
2023/01/09 06:55:51;;;;;;;6.07;1.75;;;19.40;55.40;;;;;;4810709;28;92155;-92
2023/01/09 06:58:17;;;;;;;3.72;1.52;;;19.60;55.70;;;;;;4819369;28;93669;-92
2023/01/09 07:00:43;;;;;;;7.25;1.63;;;19.80;56.00;;;;;;4819653;28;93684;-92
2023/01/09 07:03:21;;;;;;;4.53;1.92;;;20.00;55.80;;;;;;4819282;28;92227;-93
2023/01/09 07:05:47;;;;;;;3.88;1.60;;;20.10;56.00;;;;;;4816633;28;92347;-90
2023/01/09 07:08:13;;;;;;;6.90;1.50;;;20.30;56.00;;;;;;4831262;28;93435;-91
2023/01/09 07:10:43;;;;;;;3.38;1.35;;;20.40;56.10;;;;;;4819306;28;93610;-89
2023/01/09 07:13:08;;;;;;;;;;;20.40;56.20;;;;;;4829970;28;92007;-92
2023/01/09 07:15:34;;;;;;;4.68;1.30;;;20.40;56.30;;;;;;4822541;28;92512;-90
2023/01/09 07:18:00;;;;;;;5.53;1.65;;;20.50;56.50;;;;;;4817606;28;92304;-93
2023/01/09 07:20:26;;;;;;;6.25;1.70;;;20.50;56.60;;;;;;4819170;29;93202;-92
2023/01/09 07:22:52;;;;;;;3.97;1.25;;;20.50;56.70;;;;;;4819200;28;94224;-91
2023/01/09 07:25:18;;;;;;;6.40;1.70;;;20.50;56.90;;;;;;4818375;28;91254;-91
2023/01/09 07:27:44;;;;;;;3.88;1.70;;;20.40;56.90;;;;;;4830685;28;95556;-90
2023/01/09 07:30:10;;;;;;;4.20;1.30;;;20.40;57.10;;;;;;4827005;28;94957;-92
2023/01/09 07:32:37;;;;;;;4.38;1.60;;;20.40;57.30;;;;;;4815128;28;93260;-91
2023/01/09 07:35:03;;;;;;;5.90;1.60;;;20.40;57.20;;;;;;4813009;29;92387;-94
2023/01/09 07:37:29;;;;;;;4.47;1.77;;;20.30;57.40;;;;;;4816783;28;92930;-94
2023/01/09 07:39:54;;;;;;;3.88;1.40;;;20.30;57.50;;;;;;4818106;28;92993;-94
2023/01/09 07:42:20;;;;;;;2.70;1.58;;;20.20;57.60;;;;;;4817766;28;92648;-93
2023/01/09 07:45:07;;;;;;;2.90;1.33;;;20.20;58.00;;;;;;4818084;28;91984;-91
2023/01/09 07:47:31;;;;;;;6.10;1.23;;;20.10;58.20;;;;;;4818449;28;94622;-91
2023/01/09 07:49:57;;;;;;;4.00;1.48;;;20.10;58.30;;;;;;4818648;29;93404;-91
2023/01/09 07:52:23;;;;;;;4.85;1.67;;;20.10;58.50;;;;;;4818663;28;92425;-93
2023/01/09 07:54:48;;;;;;;4.05;1.70;;;20.10;58.50;;;;;;4834367;28;92493;-91
2023/01/09 07:57:14;;;;;;;5.75;1.80;;;20.00;58.80;;;;;;4834163;29;94339;-94
2023/01/09 07:59:40;;;;;;;3.20;1.33;;;20.00;58.90;;;;;;4833813;29;94398;-91
2023/01/09 08:02:06;;;;;;;4.30;1.60;;;20.00;58.90;;;;;;4835594;29;92163;-93
2023/01/09 08:04:34;;;;;;;6.57;1.80;;;20.00;58.90;;;;;;4792584;28;92859;-90
2023/01/09 08:07:02;;;;;;;4.50;1.67;;;20.10;59.00;;;;;;4834110;29;93421;-95
2023/01/09 08:09:27;;;;;;;3.38;1.52;;;20.10;58.90;;;;;;4834106;29;92344;-90
2023/01/09 08:11:53;;;;;;;3.53;1.50;;;20.10;59.10;;;;;;4818509;29;92382;-92
2023/01/09 08:14:19;;;;;;;5.05;1.45;;;20.10;59.40;;;;;;4835635;29;91463;-92
2023/01/09 08:16:44;;;;;;;7.15;2.08;;;20.10;59.40;;;;;;4843336;28;93235;-89
2023/01/09 08:19:11;;;;;;;6.80;2.38;;;20.20;59.20;;;;;;4829299;28;93502;-93
2023/01/09 08:21:56;;;;;;;5.95;1.75;;;20.20;60.00;;;;;;4829752;28;93454;-90
2023/01/09 08:24:22;;;;;;;5.60;1.98;;;20.10;60.00;;;;;;4834995;29;92095;-91
2023/01/09 08:26:48;;;;;;;5.30;1.92;;;20.10;59.90;;;;;;4828877;29;93915;-91
2023/01/09 08:29:13;;;;;;;6.30;2.15;;;20.10;60.70;;;;;;4831802;29;92742;-90
2023/01/09 08:31:39;;;;;;;8.23;2.20;;;20.10;61.50;;;;;;4826375;28;92422;-94
2023/01/09 08:34:05;;;;;;;14.55;3.05;;;20.10;60.90;;;;;;4814209;28;92015;-93
2023/01/09 08:36:31;;;;;;;4.18;1.90;;;20.20;62.30;;;;;;4812417;28;92773;-90
2023/01/09 08:38:56;;;;;;;9.77;3.10;;;20.20;61.20;;;;;;4815447;28;93251;-89
2023/01/09 08:47:06;;;;;;;13.15;3.42;;;20.60;61.90;;;;;;4813289;28;93463;-92
2023/01/09 08:49:33;;;;;;;11.23;3.70;;;20.70;62.00;;;;;;4806729;28;97453;-89
2023/01/09 08:51:59;;;;;;;8.35;3.28;;;20.90;62.00;;;;;;4831143;28;92605;-89
2023/01/09 08:54:25;;;;;;;10.23;2.92;;;21.00;61.90;;;;;;4815890;28;92521;-90
2023/01/09 08:56:50;;;;;;;14.63;3.92;;;21.00;62.10;;;;;;4815905;28;94161;-91
2023/01/09 08:59:16;;;;;;;7.97;3.28;;;21.00;62.20;;;;;;4816607;29;92197;-90
2023/01/09 09:01:42;;;;;;;11.23;3.45;;;20.90;62.00;;;;;;4816740;29;92475;-89
2023/01/09 09:04:08;;;;;;;7.70;3.47;;;20.90;62.20;;;;;;4821551;29;92413;-88
2023/01/09 09:06:33;;;;;;;9.43;3.20;;;20.90;62.00;;;;;;4811257;28;94102;-89
2023/01/09 09:09:02;;;;;;;8.52;3.10;;;21.00;61.50;;;;;;4816833;28;93343;-88
2023/01/09 09:11:49;;;;;;;8.35;3.30;;;20.80;62.30;;;;;;4824009;29;93357;-88
2023/01/09 09:16:59;;;;;;;10.85;3.20;;;20.70;61.70;;;;;;4816037;29;96609;-90
2023/01/09 09:19:25;;;;;;;10.75;3.35;;;20.70;62.20;;;;;;4815438;28;93265;-89
2023/01/09 09:21:50;;;;;;;11.07;3.42;;;20.60;61.90;;;;;;4823155;28;92937;-89
2023/01/09 09:24:16;;;;;;;9.98;3.50;;;20.60;62.20;;;;;;4830573;28;92706;-92
2023/01/09 09:26:41;;;;;;;7.78;2.88;;;20.50;62.00;;;;;;4830717;28;93382;-90
2023/01/09 09:29:07;;;;;;;11.35;3.70;;;20.50;62.00;;;;;;4816564;29;96457;-91
2023/01/09 09:31:34;;;;;;;7.28;3.05;;;20.50;62.40;;;;;;4831585;28;92874;-91
2023/01/09 09:34:00;;;;;;;11.27;3.15;;;20.50;62.40;;;;;;4831926;28;92251;-89
2023/01/09 09:36:27;;;;;;;7.53;2.65;;;20.50;62.80;;;;;;4828856;28;94986;-90
2023/01/09 09:38:53;;;;;;;9.75;3.05;;;20.60;61.60;;;;;;4830024;28;94688;-90
2023/01/09 09:44:46;;;;;;;8.15;3.05;;;20.70;61.20;;;;;;4831401;28;92428;-89
2023/01/09 09:47:52;;;;;;;8.02;2.70;;;20.60;61.60;;;;;;4826760;28;98438;-96
2023/01/09 09:50:49;;;;;;;6.25;2.47;;;20.70;60.40;;;;;;4833107;29;97570;-93
2023/01/09 09:53:31;;;;;;;8.88;2.33;;;20.60;59.40;;;;;;4821178;28;92342;-92
2023/01/09 09:55:56;;;;;;;6.40;2.65;;;20.60;60.50;;;;;;4815217;29;95604;-93
2023/01/09 09:58:40;;;;;;;6.40;2.58;;;20.60;60.40;;;;;;4815716;28;92623;-90
2023/01/09 10:01:08;;;;;;;6.25;2.80;;;20.60;60.60;;;;;;4815346;28;92742;-93
2023/01/09 10:03:58;;;;;;;5.85;2.25;;;20.60;60.70;;;;;;4815369;28;93517;-92
2023/01/09 10:06:29;;;;;;;6.75;2.55;;;20.50;60.70;;;;;;4805964;28;91930;-93
2023/01/09 10:09:10;;;;;;;7.05;2.22;;;20.60;60.10;;;;;;4815338;28;93474;-92
2023/01/09 10:11:50;;;;;;;4.85;2.08;;;20.50;59.90;;;;;;4823150;28;95220;-91
2023/01/09 10:14:16;;;;;;;6.80;1.90;;;20.50;59.70;;;;;;4830170;29;92468;-91
2023/01/09 10:17:02;;;;;;;4.15;2.10;;;20.50;59.50;;;;;;4830478;28;92453;-92
2023/01/09 10:19:33;;;;;;;10.25;2.72;;;20.50;59.50;;;;;;4829294;28;96762;-92
2023/01/09 10:22:19;;;;;;;11.32;2.88;;;20.50;58.90;;;;;;4828993;28;96472;-89
2023/01/09 10:25:00;;;;;;;6.97;1.38;;;20.50;58.80;;;;;;4829161;28;92323;-93
2023/01/09 10:27:35;;;;;;;19.88;4.03;;;20.70;56.60;;;;;;4829908;28;92438;-92
2023/01/09 10:30:24;;;;;;;9.75;2.92;;;20.70;56.50;;;;;;4823744;28;96836;-91
2023/01/09 10:33:23;;;;;;;10.10;2.70;;;20.70;56.20;;;;;;4829092;28;99434;-92
2023/01/09 10:36:29;;;;;;;14.23;3.03;;;20.60;55.50;;;;;;4808777;28;92567;-90
2023/01/09 10:39:18;;;;;;;6.65;2.35;;;20.60;56.00;;;;;;4830737;28;92803;-94
2023/01/09 10:44:25;;;;;;;5.13;1.70;;;20.70;56.00;;;;;;4891177;23;92569;-92
2023/01/09 10:46:55;;;;;;;11.48;2.22;;;20.70;55.30;;;;;;4875032;28;92500;-91
2023/01/09 10:49:22;;;;;;;4.93;1.50;;;20.70;55.10;;;;;;4875146;28;91855;-92
2023/01/09 10:52:07;;;;;;;11.88;3.25;;;20.70;55.00;;;;;;4874419;28;92747;-92
2023/01/09 10:54:39;;;;;;;8.70;2.60;;;20.70;55.60;;;;;;4875696;28;95286;-94
2023/01/09 10:57:30;;;;;;;15.00;3.53;;;20.70;55.80;;;;;;4874613;28;92950;-91
2023/01/09 10:59:56;;;;;;;12.30;3.58;;;20.80;56.20;;;;;;4877455;28;92478;-92
2023/01/09 11:02:33;;;;;;;14.82;4.15;;;20.80;56.50;;;;;;4878537;28;93722;-93
2023/01/09 11:04:59;;;;;;;11.85;3.80;;;20.80;57.10;;;;;;4954461;28;96563;-93
2023/01/09 11:07:36;;;;;;;17.48;4.78;;;20.80;57.00;;;;;;4955331;28;92036;-93
2023/01/09 11:10:11;;;;;;;10.77;4.25;;;20.80;57.50;;;;;;4955565;28;92605;-92
2023/01/09 11:12:47;;;;;;;14.77;4.68;;;20.80;57.60;;;;;;4953240;28;93643;-90
2023/01/09 11:15:18;;;;;;;14.43;4.47;;;20.80;57.80;;;;;;4960659;28;93620;-92
2023/01/09 11:17:44;;;;;;;16.70;4.20;;;20.80;58.10;;;;;;4954216;28;92646;-93
2023/01/09 11:20:19;;;;;;;14.05;3.83;;;20.80;58.40;;;;;;4955280;28;92304;-92
2023/01/09 11:22:55;;;;;;;15.88;4.72;;;20.70;58.30;;;;;;4953871;28;94606;-91
2023/01/09 11:25:24;;;;;;;13.88;4.38;;;20.70;58.40;;;;;;4952589;28;97334;-94
2023/01/09 11:28:13;;;;;;;12.50;4.30;;;20.70;58.40;;;;;;4953994;28;92689;-89
2023/01/09 11:30:52;;;;;;;21.80;5.32;;;20.70;58.10;;;;;;4942876;28;92553;-92
2023/01/09 11:33:23;;;;;;;27.65;7.43;;;20.70;57.70;;;;;;4954051;28;93708;-91
2023/01/09 11:35:51;;;;;;;15.45;4.57;;;20.70;58.00;;;;;;4953374;28;96881;-91
2023/01/09 11:38:17;;;;;;;8.48;3.33;;;20.60;57.80;;;;;;4955452;28;92516;-91
2023/01/09 11:40:54;;;;;;;7.93;2.55;;;20.80;55.30;;;;;;4954595;28;91330;-89
2023/01/09 11:43:29;;;;;;;11.40;3.95;;;20.90;54.90;;;;;;4953025;28;93721;-91
2023/01/09 11:46:06;;;;;;;11.63;3.60;;;20.90;55.80;;;;;;4953602;28;92933;-90
2023/01/09 11:48:33;;;;;;;13.25;3.85;;;20.80;56.50;;;;;;4953426;28;93324;-88
2023/01/09 11:51:02;;;;;;;19.30;4.53;;;20.80;57.10;;;;;;4954037;28;92652;-92
2023/01/09 11:53:27;;;;;;;16.17;5.37;;;20.80;57.50;;;;;;4954106;28;93796;-92
2023/01/09 11:56:01;;;;;;;17.40;4.38;;;20.90;57.50;;;;;;4954093;28;92339;-92
2023/01/09 11:58:33;;;;;;;19.08;5.32;;;20.90;57.60;;;;;;4953952;28;92021;-93
2023/01/09 12:01:13;;;;;;;14.95;4.65;;;20.90;57.70;;;;;;4953718;28;91957;-91
2023/01/09 12:03:57;;;;;;;13.20;4.43;;;20.90;57.90;;;;;;4948221;28;93597;-88
2023/01/09 12:07:01;;;;;;;14.70;4.93;;;21.00;57.80;;;;;;4956566;28;93720;-91
2023/01/09 12:09:52;;;;;;;16.30;4.57;;;21.00;58.10;;;;;;4952077;28;92299;-90
2023/01/09 12:12:29;;;;;;;15.95;4.60;;;21.00;58.10;;;;;;4952331;28;92732;-90
2023/01/09 12:15:13;;;;;;;14.23;4.32;;;20.90;58.30;;;;;;4951771;28;94438;-90
2023/01/09 12:17:46;;;;;;;24.13;6.90;;;20.90;58.50;;;;;;4951805;28;93265;-88
2023/01/09 12:20:21;;;;;;;21.52;5.13;;;20.90;58.20;;;;;;4952752;28;92042;-87
2023/01/09 12:23:04;;;;;;;24.92;6.35;;;20.90;57.90;;;;;;4952541;28;92596;-89
2023/01/09 12:25:53;;;;;;;27.10;6.65;;;20.90;58.70;;;;;;4948844;28;93617;-87
2023/01/09 12:28:54;;;;;;;19.97;5.27;;;20.80;58.80;;;;;;4950661;28;93479;-90
2023/01/09 12:31:22;;;;;;;17.40;5.63;;;20.90;58.60;;;;;;4948807;28;92908;-88
2023/01/09 12:34:05;;;;;;;20.97;6.10;;;20.90;58.70;;;;;;4949027;28;91645;-90
2023/01/09 12:36:43;;;;;;;17.88;5.13;;;21.00;58.90;;;;;;4916356;28;93289;-90
2023/01/09 12:39:25;;;;;;;25.25;6.28;;;21.10;58.80;;;;;;4890052;28;93499;-90
2023/01/09 12:42:06;;;;;;;18.02;4.72;;;21.20;58.40;;;;;;4946889;28;93744;-90
2023/01/09 12:44:48;;;;;;;17.67;5.13;;;21.30;58.30;;;;;;4949809;28;92576;-85
2023/01/09 12:47:32;;;;;;;21.73;6.03;;;21.30;58.20;;;;;;4949264;28;93214;-89
2023/01/09 12:50:30;;;;;;;17.27;5.68;;;21.40;58.30;;;;;;4949298;28;97619;-90
2023/01/09 12:53:17;;;;;;;23.93;6.00;;;21.40;58.40;;;;;;4949522;28;92915;-89
2023/01/09 12:55:49;;;;;;;22.48;6.38;;;21.40;58.50;;;;;;4947153;28;92636;-91
2023/01/09 12:58:42;;;;;;;20.05;5.93;;;21.30;58.60;;;;;;4948995;28;94314;-90
2023/01/09 13:01:15;;;;;;;19.15;6.05;;;21.30;58.60;;;;;;4926153;28;93930;-90
2023/01/09 13:04:10;;;;;;;18.48;5.72;;;21.30;58.70;;;;;;4946659;28;92865;-90
2023/01/09 13:06:43;;;;;;;19.52;6.50;;;21.20;58.80;;;;;;4951066;28;92652;-90
2023/01/09 13:09:23;;;;;;;13.73;5.30;;;21.20;59.30;;;;;;4949050;28;95066;-90
2023/01/09 13:12:02;;;;;;;14.32;5.57;;;21.20;58.90;;;;;;4949654;28;96535;-90
2023/01/09 13:14:58;;;;;;;17.90;5.60;;;21.10;58.90;;;;;;4951609;28;92203;-89
2023/01/09 13:17:28;;;;;;;17.38;5.88;;;21.10;59.00;;;;;;4941936;28;92241;-91
2023/01/09 13:19:54;;;;;;;15.32;4.80;;;21.00;59.10;;;;;;4947199;28;93609;-89
2023/01/09 13:22:24;;;;;;;14.68;5.30;;;21.00;59.10;;;;;;4950752;28;97166;-89
2023/01/09 13:24:59;;;;;;;17.20;6.13;;;20.90;59.20;;;;;;4951301;28;93858;-89
2023/01/09 13:27:27;;;;;;;20.77;5.07;;;20.80;59.40;;;;;;4951206;28;91382;-90